createdAt,value
2019-01-12T00:01:01.334Z,16.27
2019-01-12T00:03:30.368Z,16.07
2019-01-12T00:06:02.209Z,18.53
2019-01-12T00:08:31.218Z,16.47
2019-01-12T00:11:00.300Z,16.30
2019-01-12T00:13:29.428Z,14.77
2019-01-12T00:15:58.446Z,17.37
2019-01-12T00:18:27.486Z,15.43
2019-01-12T00:20:56.660Z,18.27
2019-01-12T00:23:25.676Z,16.17
2019-01-12T00:25:54.671Z,15.37
2019-01-12T00:28:23.670Z,13.93
2019-01-12T00:30:52.659Z,14.67
2019-01-12T00:33:21.699Z,14.73
2019-01-12T00:35:50.785Z,15.03
2019-01-12T00:38:20.076Z,17.77
2019-01-12T00:40:49.226Z,14.20
2019-01-12T00:43:18.353Z,13.77
2019-01-12T00:45:47.325Z,16.17
2019-01-12T00:48:16.486Z,12.97
2019-01-12T00:50:45.493Z,14.80
2019-01-12T00:53:14.490Z,14.07
2019-01-12T00:55:43.594Z,13.63
2019-01-12T00:58:12.783Z,13.97
2019-01-12T01:00:41.803Z,14.73
2019-01-12T01:03:10.938Z,15.43
2019-01-12T01:05:39.986Z,15.13
2019-01-12T01:08:08.994Z,15.20
2019-01-12T01:10:38.220Z,13.90
2019-01-12T01:13:07.363Z,15.27
2019-01-12T01:15:36.342Z,15.47
2019-01-12T01:18:05.450Z,15.00
2019-01-12T01:20:34.574Z,13.80
2019-01-12T01:23:03.650Z,14.53
2019-01-12T01:25:32.678Z,13.17
2019-01-12T01:28:01.696Z,13.47
2019-01-12T01:30:30.874Z,12.23
2019-01-12T01:32:59.951Z,14.00
2019-01-12T01:35:28.958Z,12.73
2019-01-12T01:37:57.944Z,13.00
2019-01-12T01:40:27.028Z,12.87
2019-01-12T01:42:56.079Z,13.20
2019-01-12T01:45:25.099Z,12.83
2019-01-12T01:47:54.112Z,12.40
2019-01-12T01:50:23.127Z,12.57
2019-01-12T01:52:52.173Z,13.20
2019-01-12T01:55:21.236Z,12.57
2019-01-12T01:57:50.247Z,13.77
2019-01-12T02:00:19.256Z,12.67
2019-01-12T02:02:48.319Z,13.77
2019-01-12T02:05:17.382Z,10.87
2019-01-12T02:07:46.366Z,12.60
2019-01-12T02:10:20.049Z,11.37
2019-01-12T02:12:49.072Z,11.23
2019-01-12T02:15:18.733Z,11.30
2019-01-12T02:17:47.824Z,11.20
2019-01-12T02:20:16.936Z,11.27
2019-01-12T02:22:45.898Z,11.13
2019-01-12T02:25:14.930Z,11.07
2019-01-12T02:27:44.017Z,11.13
2019-01-12T02:30:20.271Z,10.33
2019-01-12T02:32:49.269Z,9.47
2019-01-12T02:35:18.291Z,11.23
2019-01-12T02:37:47.383Z,10.70
2019-01-12T02:40:16.396Z,9.57
2019-01-12T02:42:45.409Z,8.87
2019-01-12T02:45:14.722Z,8.83
2019-01-12T02:47:43.702Z,8.80
2019-01-12T02:50:12.783Z,8.47
2019-01-12T02:52:41.854Z,8.60
2019-01-12T02:55:11.050Z,8.50
2019-01-12T02:57:40.061Z,8.47
2019-01-12T03:00:11.082Z,8.30
2019-01-12T03:02:40.176Z,8.83
2019-01-12T03:05:09.176Z,9.17
2019-01-12T03:07:38.155Z,8.80
2019-01-12T03:10:07.754Z,7.67
2019-01-12T03:12:36.730Z,7.83
2019-01-12T03:15:07.373Z,8.37
2019-01-12T03:17:36.564Z,7.80
2019-01-12T03:20:06.520Z,8.47
2019-01-12T03:22:35.483Z,7.57
2019-01-12T03:25:04.823Z,7.87
2019-01-12T03:27:34.717Z,7.60
2019-01-12T03:30:05.249Z,8.60
2019-01-12T03:32:34.295Z,8.30
2019-01-12T03:35:03.359Z,8.43
2019-01-12T03:37:32.365Z,7.67
2019-01-12T03:40:01.386Z,8.13
2019-01-12T03:42:30.347Z,8.37
2019-01-12T03:44:59.363Z,8.47
2019-01-12T03:47:28.342Z,7.47
2019-01-12T03:49:57.369Z,7.33
2019-01-12T03:52:26.357Z,8.03
2019-01-12T03:54:55.334Z,7.13
2019-01-12T03:57:24.311Z,7.37
2019-01-12T03:59:53.311Z,7.10
2019-01-12T04:02:22.300Z,8.20
2019-01-12T04:04:51.351Z,7.23
2019-01-12T04:07:20.346Z,6.67
2019-01-12T04:09:49.393Z,7.27
2019-01-12T04:12:18.476Z,7.47
2019-01-12T04:14:47.447Z,7.43
2019-01-12T04:17:16.434Z,6.83
2019-01-12T04:19:45.533Z,7.27
2019-01-12T04:22:14.550Z,8.10
2019-01-12T04:24:43.541Z,7.33
2019-01-12T04:27:12.614Z,7.53
2019-01-12T04:29:41.607Z,8.53
2019-01-12T04:32:10.669Z,8.73
2019-01-12T04:34:39.771Z,8.23
2019-01-12T04:37:08.775Z,8.67
2019-01-12T04:39:37.727Z,9.20
2019-01-12T04:42:06.779Z,9.10
2019-01-12T04:44:35.737Z,10.43
2019-01-12T04:47:04.700Z,9.23
2019-01-12T04:49:33.658Z,9.33
2019-01-12T04:52:02.630Z,10.07
2019-01-12T04:54:31.579Z,9.37
2019-01-12T04:57:00.613Z,9.87
2019-01-12T04:59:29.596Z,9.67
2019-01-12T05:01:58.570Z,9.37
2019-01-12T05:04:27.610Z,10.00
2019-01-12T05:06:56.591Z,9.67
2019-01-12T05:09:25.556Z,9.47
2019-01-12T05:11:54.542Z,10.23
2019-01-12T05:14:23.496Z,10.07
2019-01-12T05:16:52.472Z,10.10
2019-01-12T05:19:21.434Z,10.20
2019-01-12T05:21:50.404Z,9.50
2019-01-12T05:24:19.372Z,10.37
2019-01-12T05:26:48.411Z,9.93
2019-01-12T05:29:17.386Z,10.47
2019-01-12T05:31:46.376Z,10.13
2019-01-12T05:34:15.347Z,10.10
2019-01-12T05:36:44.325Z,9.83
2019-01-12T05:39:13.283Z,10.03
2019-01-12T05:41:42.261Z,10.73
2019-01-12T05:44:11.229Z,10.50
2019-01-12T05:46:40.204Z,9.83
2019-01-12T05:49:09.169Z,9.50
2019-01-12T05:51:39.346Z,9.97
2019-01-12T05:54:08.308Z,9.67
2019-01-12T05:56:37.291Z,9.03
2019-01-12T05:59:06.246Z,9.90
2019-01-12T06:01:35.218Z,9.60
2019-01-12T06:04:04.182Z,10.40
2019-01-12T06:06:33.158Z,9.33
2019-01-12T06:09:02.197Z,9.40
2019-01-12T06:11:31.179Z,9.43
2019-01-12T06:14:00.138Z,9.70
2019-01-12T06:16:29.113Z,10.17
2019-01-12T06:18:58.091Z,10.83
2019-01-12T06:21:27.049Z,9.73
2019-01-12T06:23:56.126Z,10.57
2019-01-12T06:26:25.088Z,10.20
2019-01-12T06:28:54.058Z,10.37
2019-01-12T06:31:23.018Z,10.73
2019-01-12T06:33:52.010Z,11.00
2019-01-12T06:36:20.990Z,11.47
2019-01-12T06:38:50.039Z,11.43
2019-01-12T06:41:19.004Z,11.63
2019-01-12T06:43:48.042Z,12.53
2019-01-12T06:46:17.018Z,12.73
2019-01-12T06:48:46.003Z,13.50
2019-01-12T06:51:14.980Z,13.57
2019-01-12T06:53:43.975Z,13.63
2019-01-12T06:56:12.950Z,13.97
2019-01-12T06:58:41.954Z,13.00
2019-01-12T07:01:10.929Z,14.13
2019-01-12T07:03:39.907Z,14.17
2019-01-12T07:06:08.901Z,13.23
2019-01-12T07:08:37.921Z,13.33
2019-01-12T07:11:06.880Z,13.43
2019-01-12T07:13:35.878Z,13.97
2019-01-12T07:16:04.850Z,13.13
2019-01-12T07:18:33.844Z,12.47
2019-01-12T07:21:02.805Z,13.93
2019-01-12T07:23:31.793Z,12.40
2019-01-12T07:26:00.760Z,13.20
2019-01-12T07:28:29.734Z,13.37
2019-01-12T07:30:58.706Z,12.73
2019-01-12T07:33:27.805Z,12.73
2019-01-12T07:35:56.845Z,12.67
2019-01-12T07:38:25.822Z,11.93
2019-01-12T07:40:54.780Z,12.40
2019-01-12T07:43:23.765Z,13.27
2019-01-12T07:45:52.722Z,12.43
2019-01-12T07:48:21.719Z,13.47
2019-01-12T07:50:50.688Z,12.43
2019-01-12T07:53:19.677Z,13.57
2019-01-12T07:55:48.634Z,12.73
2019-01-12T07:58:17.634Z,12.97
2019-01-12T08:00:46.633Z,12.87
2019-01-12T08:03:15.634Z,13.23
2019-01-12T08:05:44.602Z,12.97
2019-01-12T08:08:15.054Z,14.30
2019-01-12T08:10:44.024Z,13.67
2019-01-12T08:13:13.186Z,12.87
2019-01-12T08:15:43.534Z,13.30
2019-01-12T08:18:12.517Z,12.97
2019-01-12T08:20:41.487Z,13.83
2019-01-12T08:23:10.512Z,14.27
2019-01-12T08:25:39.470Z,13.10
2019-01-12T08:28:08.485Z,12.43
2019-01-12T08:30:37.466Z,13.13
2019-01-12T08:33:06.475Z,12.43
2019-01-12T08:35:35.467Z,12.07
2019-01-12T08:38:04.466Z,12.67
2019-01-12T08:40:33.446Z,11.60
2019-01-12T08:43:02.442Z,11.63
2019-01-12T08:45:31.497Z,11.67
2019-01-12T08:48:00.563Z,11.20
2019-01-12T08:50:29.645Z,10.20
2019-01-12T08:52:58.731Z,11.03
2019-01-12T08:55:27.711Z,10.23
2019-01-12T08:57:56.733Z,11.03
2019-01-12T09:00:25.851Z,10.57
2019-01-12T09:02:54.915Z,10.60
2019-01-12T09:05:23.990Z,10.10
2019-01-12T09:07:53.032Z,11.27
2019-01-12T09:10:22.681Z,11.13
2019-01-12T09:12:51.733Z,10.73
2019-01-12T09:15:22.562Z,10.53
2019-01-12T09:17:51.705Z,10.07
2019-01-12T09:20:20.725Z,11.27
2019-01-12T09:22:49.827Z,11.77
2019-01-12T09:25:18.931Z,10.57
2019-01-12T09:27:48.017Z,10.93
2019-01-12T09:30:20.912Z,11.53
2019-01-12T09:32:50.178Z,12.03
2019-01-12T09:35:19.266Z,10.57
2019-01-12T09:37:48.290Z,11.57
2019-01-12T09:40:18.161Z,12.77
2019-01-12T09:42:47.175Z,11.77
2019-01-12T09:45:16.448Z,12.27
2019-01-12T09:47:45.462Z,11.87
2019-01-12T09:50:15.497Z,12.13
2019-01-12T09:52:44.510Z,11.17
2019-01-12T09:55:13.902Z,11.73
2019-01-12T09:57:43.013Z,11.70
2019-01-12T10:00:14.091Z,12.20
2019-01-12T10:02:43.118Z,11.80
2019-01-12T10:05:12.239Z,11.43
2019-01-12T10:07:41.297Z,10.37
2019-01-12T10:10:11.588Z,12.27
2019-01-12T10:12:40.659Z,12.37
2019-01-12T10:15:09.911Z,12.73
2019-01-12T10:17:39.037Z,11.27
2019-01-12T10:20:09.559Z,12.63
2019-01-12T10:22:38.603Z,12.57
2019-01-12T10:25:08.148Z,12.47
2019-01-12T10:27:37.142Z,12.80
2019-01-12T10:30:07.670Z,12.77
2019-01-12T10:32:36.779Z,13.73
2019-01-12T10:35:06.058Z,12.27
2019-01-12T10:37:35.080Z,12.70
2019-01-12T10:40:05.334Z,13.03
2019-01-12T10:42:34.503Z,13.70
2019-01-12T10:45:04.714Z,14.33
2019-01-12T10:47:33.800Z,13.70
2019-01-12T10:50:02.887Z,12.77
2019-01-12T10:52:31.966Z,12.20
2019-01-12T10:55:01.201Z,12.83
2019-01-12T10:57:30.602Z,13.10
2019-01-12T10:59:59.626Z,14.10
2019-01-12T11:02:28.767Z,13.43
2019-01-12T11:04:57.896Z,13.73
2019-01-12T11:07:27.030Z,13.40
2019-01-12T11:09:56.187Z,15.40
2019-01-12T11:12:25.570Z,16.20
2019-01-12T11:14:54.622Z,15.17
2019-01-12T11:17:23.715Z,15.27
2019-01-12T11:19:53.945Z,14.83
2019-01-12T11:22:24.869Z,13.37
2019-01-12T11:24:54.067Z,15.00
2019-01-12T11:27:23.126Z,13.63
2019-01-12T11:29:52.222Z,13.43
2019-01-12T11:32:22.868Z,14.23
2019-01-12T11:34:51.865Z,15.40
2019-01-12T11:37:21.104Z,13.87
2019-01-12T11:39:50.154Z,14.27
2019-01-12T11:42:19.314Z,13.73
2019-01-12T11:44:48.406Z,13.93
2019-01-12T11:47:17.506Z,13.47
2019-01-12T11:49:46.543Z,13.93
2019-01-12T11:52:15.738Z,14.43
2019-01-12T11:54:44.846Z,14.53
2019-01-12T11:57:19.319Z,13.83
2019-01-12T11:59:47.881Z,15.53
2019-01-12T12:02:17.191Z,15.50
2019-01-12T12:04:46.242Z,14.10
2019-01-12T12:07:15.331Z,15.07
2019-01-12T12:09:45.415Z,15.97
2019-01-12T12:12:14.625Z,14.97
2019-01-12T12:14:43.617Z,15.33
2019-01-12T12:17:12.633Z,16.63
2019-01-12T12:19:41.781Z,16.93
2019-01-12T12:22:10.838Z,16.27
2019-01-12T12:24:39.909Z,15.90
2019-01-12T12:27:09.021Z,16.30
2019-01-12T12:29:38.081Z,16.23
2019-01-12T12:32:07.101Z,16.27
2019-01-12T12:34:36.183Z,14.77
2019-01-12T12:37:05.299Z,16.23
2019-01-12T12:39:35.931Z,15.53
2019-01-12T12:42:05.024Z,15.37
2019-01-12T12:44:34.084Z,15.13
2019-01-12T12:47:03.098Z,16.30
2019-01-12T12:49:32.205Z,15.77
2019-01-12T12:52:01.314Z,14.90
2019-01-12T12:54:30.392Z,15.27
2019-01-12T12:56:59.501Z,13.77
2019-01-12T12:59:28.652Z,15.60
2019-01-12T13:01:57.742Z,14.23
2019-01-12T13:04:26.769Z,15.53
2019-01-12T13:06:55.989Z,16.57
2019-01-12T13:09:25.064Z,14.73
2019-01-12T13:11:54.259Z,15.13
2019-01-12T13:14:23.361Z,14.70
2019-01-12T13:16:52.624Z,14.93
2019-01-12T13:19:21.650Z,14.83
2019-01-12T13:21:50.838Z,13.63
2019-01-12T13:24:19.934Z,14.50
2019-01-12T13:26:49.058Z,14.47
2019-01-12T13:29:18.154Z,16.13
2019-01-12T13:31:47.340Z,14.13
2019-01-12T13:34:16.339Z,39.23
2019-01-12T13:36:45.510Z,63.43
2019-01-12T13:39:14.730Z,50.90
2019-01-12T13:41:43.863Z,27.90
2019-01-12T13:44:12.907Z,41.50
2019-01-12T13:46:42.014Z,53.03
2019-01-12T13:49:11.098Z,13.70
2019-01-12T13:51:40.199Z,13.60
2019-01-12T13:54:09.287Z,13.50
2019-01-12T13:56:38.386Z,13.07
2019-01-12T13:59:07.470Z,12.77
2019-01-12T14:01:36.786Z,11.63
2019-01-12T14:04:05.960Z,11.23
2019-01-12T14:06:35.123Z,11.70
2019-01-12T14:09:05.807Z,11.23
2019-01-12T14:11:34.947Z,9.20
2019-01-12T14:14:03.990Z,10.47
2019-01-12T14:16:33.194Z,10.97
2019-01-12T14:19:02.409Z,10.53
2019-01-12T14:21:31.719Z,12.00
2019-01-12T14:24:00.882Z,10.77
2019-01-12T14:26:30.201Z,11.13
2019-01-12T14:28:59.610Z,11.67
2019-01-12T14:31:28.917Z,10.70
2019-01-12T14:33:58.254Z,11.20
2019-01-12T14:36:27.419Z,11.30
2019-01-12T14:38:56.946Z,11.67
2019-01-12T14:41:26.214Z,10.87
2019-01-12T14:43:55.567Z,11.30
2019-01-12T14:46:24.897Z,10.93
2019-01-12T14:48:54.077Z,11.40
2019-01-12T14:51:25.116Z,11.27
2019-01-12T14:53:54.382Z,10.93
2019-01-12T14:56:24.714Z,11.13
2019-01-12T14:58:53.992Z,11.57
2019-01-12T15:01:23.096Z,11.57
2019-01-12T15:03:52.437Z,12.40
2019-01-12T15:06:21.705Z,10.87
2019-01-12T15:08:51.049Z,10.70
2019-01-12T15:11:20.432Z,11.43
2019-01-12T15:13:49.803Z,12.53
2019-01-12T15:16:18.794Z,12.50
2019-01-12T15:18:49.245Z,12.90
2019-01-12T15:21:18.272Z,14.53
2019-01-12T15:23:47.288Z,14.10
2019-01-12T15:26:16.361Z,13.80
2019-01-12T15:28:45.420Z,13.03
2019-01-12T15:31:14.398Z,11.83
2019-01-12T15:33:45.062Z,10.63
2019-01-12T15:36:14.004Z,10.73
2019-01-12T15:38:43.012Z,10.30
2019-01-12T15:41:11.989Z,11.07
2019-01-12T15:43:40.997Z,11.13
2019-01-12T15:46:10.058Z,11.83
2019-01-12T15:48:39.048Z,12.10
2019-01-12T15:51:08.047Z,11.47
2019-01-12T15:53:37.171Z,11.10
2019-01-12T15:56:06.180Z,11.93
2019-01-12T15:58:35.236Z,13.33
2019-01-12T16:01:04.275Z,11.97
2019-01-12T16:03:33.270Z,12.10
2019-01-12T16:06:02.252Z,12.07
2019-01-12T16:08:31.306Z,12.73
2019-01-12T16:11:00.271Z,14.37
2019-01-12T16:13:29.262Z,11.73
2019-01-12T16:15:58.420Z,11.30
2019-01-12T16:18:27.474Z,10.90
2019-01-12T16:20:56.516Z,9.97
2019-01-12T16:23:25.503Z,10.77
2019-01-12T16:25:54.472Z,10.47
2019-01-12T16:28:23.628Z,10.13
2019-01-12T16:30:52.789Z,10.20
2019-01-12T16:33:22.072Z,10.73
2019-01-12T16:35:51.208Z,10.20
2019-01-12T16:38:20.216Z,11.07
2019-01-12T16:40:49.290Z,10.53
2019-01-12T16:43:18.266Z,9.13
2019-01-12T16:45:47.312Z,10.57
2019-01-12T16:48:16.306Z,11.70
2019-01-12T16:50:45.311Z,11.57
2019-01-12T16:53:14.420Z,10.63
2019-01-12T16:55:43.414Z,10.47
2019-01-12T16:58:12.420Z,7.83
2019-01-12T17:00:41.420Z,8.27
2019-01-12T17:03:10.410Z,8.33
2019-01-12T17:05:39.446Z,9.27
2019-01-12T17:08:08.519Z,8.57
2019-01-12T17:10:37.485Z,9.77
2019-01-12T17:13:06.536Z,11.17
2019-01-12T17:15:35.527Z,11.13
2019-01-12T17:18:04.682Z,10.20
2019-01-12T17:20:33.667Z,9.53
2019-01-12T17:23:03.414Z,10.77
2019-01-12T17:25:32.597Z,9.50
2019-01-12T17:28:01.654Z,11.93
2019-01-12T17:30:30.730Z,12.83
2019-01-12T17:33:00.015Z,12.87
2019-01-12T17:35:30.229Z,12.30
2019-01-12T17:37:59.444Z,10.23
2019-01-12T17:40:29.686Z,8.57
2019-01-12T17:42:59.068Z,8.40
2019-01-12T17:45:28.209Z,7.43
2019-01-12T17:47:57.319Z,6.93
2019-01-12T17:50:26.891Z,6.73
2019-01-12T17:52:56.026Z,5.17
2019-01-12T17:55:25.816Z,4.43
2019-01-12T17:57:55.101Z,5.87
2019-01-12T18:00:33.581Z,5.20
2019-01-12T18:03:02.659Z,4.60
2019-01-12T18:05:31.642Z,4.90
2019-01-12T18:08:00.631Z,6.10
2019-01-12T18:10:29.623Z,4.70
2019-01-12T18:12:58.591Z,4.40
2019-01-12T18:15:27.610Z,4.30
2019-01-12T18:17:56.575Z,4.60
2019-01-12T18:20:25.550Z,4.13
2019-01-12T18:22:54.587Z,4.87
2019-01-12T18:25:23.567Z,4.63
2019-01-12T18:27:52.568Z,4.33
2019-01-12T18:30:21.557Z,4.57
2019-01-12T18:32:50.530Z,4.77
2019-01-12T18:35:19.637Z,5.90
2019-01-12T18:37:48.705Z,4.33
2019-01-12T18:40:17.923Z,4.40
2019-01-12T18:42:46.890Z,5.43
2019-01-12T18:45:16.586Z,4.03
2019-01-12T18:47:46.103Z,4.50
2019-01-12T18:50:19.185Z,4.60
2019-01-12T18:52:48.202Z,3.77
2019-01-12T18:55:17.286Z,4.07
2019-01-12T18:57:46.259Z,5.13
2019-01-12T19:00:19.037Z,4.70
2019-01-12T19:02:48.071Z,3.80
2019-01-12T19:05:17.389Z,4.27
2019-01-12T19:07:46.489Z,4.03
2019-01-12T19:10:15.776Z,4.07
2019-01-12T19:12:45.218Z,3.40
2019-01-12T19:15:15.662Z,3.87
2019-01-12T19:17:44.873Z,4.60
2019-01-12T19:20:14.026Z,4.40
2019-01-12T19:22:42.990Z,3.90
2019-01-12T19:25:12.128Z,5.23
2019-01-12T19:27:41.178Z,5.30
2019-01-12T19:30:11.547Z,4.70
2019-01-12T19:32:40.511Z,4.73
2019-01-12T19:35:09.552Z,5.00
2019-01-12T19:37:38.510Z,4.57
2019-01-12T19:40:09.491Z,5.20
2019-01-12T19:42:38.570Z,4.63
2019-01-12T19:45:08.339Z,3.77
2019-01-12T19:47:37.302Z,3.77
2019-01-12T19:50:06.751Z,3.90
2019-01-12T19:52:35.923Z,5.50
2019-01-12T19:55:05.367Z,5.23
2019-01-12T19:57:34.355Z,5.50
2019-01-12T20:00:04.125Z,4.53
2019-01-12T20:02:33.166Z,4.93
2019-01-12T20:05:02.267Z,3.97
2019-01-12T20:07:31.281Z,3.87
2019-01-12T20:10:00.343Z,3.40
2019-01-12T20:12:29.693Z,3.93
2019-01-12T20:14:58.893Z,3.10
2019-01-12T20:17:27.874Z,3.27
2019-01-12T20:19:57.124Z,3.20
2019-01-12T20:22:26.255Z,3.70
2019-01-12T20:24:55.290Z,3.30
2019-01-12T20:27:24.355Z,3.57
2019-01-12T20:29:53.335Z,3.30
2019-01-12T20:32:44.263Z,3.70
2019-01-12T20:35:30.854Z,3.90
2019-01-12T20:38:12.001Z,4.30
2019-01-12T20:41:00.148Z,3.87
2019-01-12T20:43:57.078Z,3.33
2019-01-12T20:46:44.712Z,4.87
2019-01-12T20:49:38.668Z,4.00
2019-01-12T20:52:41.727Z,4.07
2019-01-12T20:55:19.778Z,5.30
2019-01-12T20:58:12.494Z,4.47
2019-01-12T21:01:03.517Z,4.10
2019-01-12T21:03:57.394Z,4.87
2019-01-12T21:06:39.222Z,4.20
2019-01-12T21:09:13.635Z,3.93
2019-01-12T21:11:48.695Z,4.60
2019-01-12T21:14:39.610Z,4.80
2019-01-12T21:17:09.640Z,4.40
2019-01-12T21:19:38.602Z,4.23
2019-01-12T21:22:07.714Z,4.40
2019-01-12T21:24:36.675Z,5.40
2019-01-12T21:27:05.746Z,5.57
2019-01-12T21:29:35.307Z,5.17
2019-01-12T21:32:04.646Z,4.77
2019-01-12T21:34:33.608Z,4.23
2019-01-12T21:37:02.582Z,5.03
2019-01-12T21:39:31.580Z,4.60
2019-01-12T21:42:00.573Z,4.30
2019-01-12T21:44:29.608Z,4.27
2019-01-12T21:46:58.624Z,4.33
2019-01-12T21:49:28.071Z,4.23
2019-01-12T21:51:57.060Z,4.40
2019-01-12T21:54:26.051Z,3.80
2019-01-12T21:56:55.122Z,4.60
2019-01-12T21:59:24.082Z,4.00
2019-01-12T22:01:53.159Z,4.60
2019-01-12T22:04:22.205Z,4.37
2019-01-12T22:06:51.213Z,4.47
2019-01-12T22:09:20.206Z,4.63
2019-01-12T22:11:49.230Z,4.93
2019-01-12T22:14:18.339Z,4.43
2019-01-12T22:16:47.333Z,4.40
2019-01-12T22:19:16.361Z,4.43
2019-01-12T22:21:45.928Z,5.00
2019-01-12T22:24:15.034Z,6.40
2019-01-12T22:26:44.054Z,4.70
2019-01-12T22:29:13.105Z,4.53
2019-01-12T22:31:42.125Z,5.00
2019-01-12T22:34:11.156Z,4.23
2019-01-12T22:36:40.522Z,4.07
2019-01-12T22:39:10.212Z,5.03
2019-01-12T22:41:39.246Z,4.27
2019-01-12T22:44:08.248Z,5.93
2019-01-12T22:46:37.220Z,5.20
2019-01-12T22:49:06.392Z,5.77
2019-01-12T22:51:35.423Z,5.03
2019-01-12T22:54:04.632Z,5.43
2019-01-12T22:56:33.683Z,5.20
2019-01-12T22:59:02.752Z,5.17
2019-01-12T23:01:35.357Z,6.30
2019-01-12T23:04:04.847Z,5.03
2019-01-12T23:06:33.856Z,5.90
2019-01-12T23:09:03.259Z,6.40
2019-01-12T23:11:32.278Z,6.57
2019-01-12T23:14:23.486Z,6.43
2019-01-12T23:16:53.095Z,6.57
2019-01-12T23:19:22.698Z,7.00
2019-01-12T23:21:52.424Z,7.10
2019-01-12T23:24:23.462Z,6.93
2019-01-12T23:26:53.170Z,7.30
2019-01-12T23:29:22.763Z,6.80
2019-01-12T23:31:53.186Z,7.30
2019-01-12T23:34:22.653Z,7.63
2019-01-12T23:36:52.259Z,6.93
2019-01-12T23:39:22.313Z,7.20
2019-01-12T23:41:52.067Z,7.33
2019-01-12T23:44:21.687Z,9.77
2019-01-12T23:46:51.061Z,7.87
2019-01-12T23:49:20.660Z,8.50
2019-01-12T23:51:50.256Z,6.00
2019-01-12T23:54:19.377Z,7.00
2019-01-12T23:56:48.450Z,7.23
2019-01-12T23:59:17.606Z,9.43
